createdAt,value
2022-11-21T00:01:30.163Z,2.47
2022-11-21T00:03:58.217Z,2.33
2022-11-21T00:06:26.987Z,1.77
2022-11-21T00:08:59.329Z,1.25
2022-11-21T00:11:28.913Z,1.23
2022-11-21T00:13:56.966Z,1.27
2022-11-21T00:16:25.016Z,1.33
2022-11-21T00:18:53.024Z,1.40
2022-11-21T00:21:21.691Z,1.33
2022-11-21T00:23:50.872Z,1.38
2022-11-21T00:26:21.476Z,1.40
2022-11-21T00:28:53.671Z,1.73
2022-11-21T00:31:23.180Z,1.42
2022-11-21T00:33:51.276Z,1.30
2022-11-21T00:36:19.371Z,1.10
2022-11-21T00:38:47.555Z,1.35
2022-11-21T00:41:15.737Z,0.95
2022-11-21T00:43:43.878Z,0.95
2022-11-21T00:46:14.614Z,1.10
2022-11-21T00:48:42.808Z,1.20
2022-11-21T00:51:10.785Z,1.40
2022-11-21T00:53:38.787Z,1.10
2022-11-21T00:56:06.918Z,1.25
2022-11-21T00:58:35.044Z,1.33
2022-11-21T01:01:07.195Z,1.00
2022-11-21T01:03:37.098Z,1.23
2022-11-21T01:06:07.943Z,1.00
2022-11-21T01:08:37.806Z,1.10
2022-11-21T01:11:10.251Z,1.33
2022-11-21T01:16:08.133Z,0.90
2022-11-21T01:18:38.349Z,1.00
2022-11-21T01:21:08.760Z,1.10
2022-11-21T01:23:36.706Z,2.20
2022-11-21T01:26:05.540Z,2.00
2022-11-21T01:28:34.366Z,2.38
2022-11-21T01:31:05.707Z,2.33
2022-11-21T01:33:33.816Z,2.17
2022-11-21T01:36:13.003Z,2.50
2022-11-21T01:38:42.104Z,2.20
2022-11-21T01:41:13.302Z,2.33
2022-11-21T01:43:41.661Z,2.22
2022-11-21T01:46:14.664Z,2.58
2022-11-21T01:48:48.423Z,1.80
2022-11-21T01:51:22.295Z,1.33
2022-11-21T01:53:56.357Z,1.92
2022-11-21T01:56:26.474Z,2.42
2022-11-21T01:58:59.445Z,1.45
2022-11-21T02:01:28.702Z,1.70
2022-11-21T02:03:57.849Z,1.20
2022-11-21T02:06:28.737Z,1.73
2022-11-21T02:08:58.453Z,1.75
2022-11-21T02:11:32.444Z,2.28
2022-11-21T02:14:01.712Z,1.83
2022-11-21T02:16:30.673Z,1.30
2022-11-21T02:18:58.792Z,1.48
2022-11-21T02:21:39.404Z,1.67
2022-11-21T02:24:13.591Z,1.65
2022-11-21T02:26:43.410Z,1.27
2022-11-21T02:29:11.561Z,1.30
2022-11-21T02:31:41.770Z,1.45
2022-11-21T02:34:09.991Z,1.92
2022-11-21T02:36:44.251Z,1.60
2022-11-21T02:39:19.919Z,1.30
2022-11-21T02:41:58.404Z,1.67
2022-11-21T02:44:30.749Z,1.08
2022-11-21T02:46:58.770Z,1.35
2022-11-21T02:49:35.688Z,1.15
2022-11-21T02:52:03.689Z,1.05
2022-11-21T02:54:31.784Z,1.02
2022-11-21T02:57:01.263Z,1.42
2022-11-21T02:59:29.356Z,1.05
2022-11-21T03:01:59.798Z,1.02
2022-11-21T03:04:29.267Z,1.38
2022-11-21T03:06:57.477Z,1.20
2022-11-21T03:09:25.548Z,1.20
2022-11-21T03:11:53.604Z,1.02
2022-11-21T03:14:22.995Z,0.90
2022-11-21T03:16:51.081Z,0.95
2022-11-21T03:19:19.256Z,1.17
2022-11-21T03:21:47.295Z,1.08
2022-11-21T03:24:15.420Z,1.13
2022-11-21T03:26:43.397Z,0.70
2022-11-21T03:29:11.517Z,1.40
2022-11-21T03:31:41.261Z,1.33
2022-11-21T03:34:09.317Z,1.05
2022-11-21T03:36:37.367Z,1.10
2022-11-21T03:39:06.485Z,1.08
2022-11-21T03:41:35.261Z,1.20
2022-11-21T03:44:05.725Z,1.15
2022-11-21T03:46:36.281Z,1.15
2022-11-21T03:49:06.637Z,1.23
2022-11-21T03:51:35.774Z,1.05
2022-11-21T03:54:04.240Z,1.10
2022-11-21T03:56:32.300Z,0.88
2022-11-21T03:59:00.449Z,1.02
2022-11-21T04:01:32.455Z,1.15
2022-11-21T04:04:03.279Z,1.10
2022-11-21T04:06:33.001Z,0.95
2022-11-21T04:09:00.972Z,0.98
2022-11-21T04:11:28.980Z,0.88
2022-11-21T04:13:56.933Z,1.02
2022-11-21T04:16:24.921Z,0.95
2022-11-21T04:18:53.429Z,1.10
2022-11-21T04:21:21.455Z,0.95
2022-11-21T04:23:50.776Z,1.13
2022-11-21T04:26:18.746Z,0.80
2022-11-21T04:28:46.869Z,0.80
2022-11-21T04:31:14.963Z,0.77
2022-11-21T04:33:43.003Z,0.90
2022-11-21T04:36:11.244Z,0.57
2022-11-21T04:38:39.400Z,1.20
2022-11-21T04:41:08.693Z,0.90
2022-11-21T04:43:36.677Z,0.80
2022-11-21T04:46:04.829Z,0.55
2022-11-21T04:48:33.652Z,1.17
2022-11-21T04:51:01.558Z,0.85
2022-11-21T04:53:29.551Z,0.85
2022-11-21T04:55:57.557Z,0.50
2022-11-21T04:58:26.986Z,0.90
2022-11-21T05:00:54.960Z,0.63
2022-11-21T05:03:23.232Z,0.88
2022-11-21T05:05:51.470Z,0.85
2022-11-21T05:08:19.455Z,0.88
2022-11-21T05:11:05.182Z,1.23
2022-11-21T05:13:34.569Z,1.25
2022-11-21T05:16:02.530Z,1.20
2022-11-21T05:18:30.815Z,1.15
2022-11-21T05:20:58.867Z,1.08
2022-11-21T05:23:26.976Z,1.05
2022-11-21T05:25:54.980Z,0.90
2022-11-21T05:28:23.010Z,1.05
2022-11-21T05:30:52.399Z,0.93
2022-11-21T05:33:20.538Z,1.13
2022-11-21T05:36:12.178Z,1.15
2022-11-21T05:38:40.599Z,1.17
2022-11-21T05:41:14.639Z,0.98
2022-11-21T05:44:00.892Z,1.23
2022-11-21T05:47:00.118Z,1.20
2022-11-21T05:49:30.952Z,1.20
2022-11-21T05:51:59.399Z,1.25
2022-11-21T05:54:27.733Z,0.90
2022-11-21T05:56:56.210Z,1.40
2022-11-21T05:59:24.466Z,1.30
2022-11-21T06:02:11.520Z,1.27
2022-11-21T06:04:39.532Z,1.30
2022-11-21T06:07:07.642Z,1.30
2022-11-21T06:09:35.863Z,1.30
2022-11-21T06:12:06.948Z,1.60
2022-11-21T06:14:37.846Z,1.38
2022-11-21T06:17:07.216Z,1.33
2022-11-21T06:19:35.167Z,1.40
2022-11-21T06:22:03.238Z,1.80
2022-11-21T06:24:31.380Z,1.33
2022-11-21T06:26:59.803Z,1.38
2022-11-21T06:29:27.879Z,1.35
2022-11-21T06:31:56.545Z,2.03
2022-11-21T06:34:27.571Z,1.35
2022-11-21T06:36:55.665Z,1.40
2022-11-21T06:39:25.799Z,1.60
2022-11-21T06:41:53.758Z,1.40
2022-11-21T06:44:21.682Z,1.15
2022-11-21T06:46:51.665Z,1.25
2022-11-21T06:49:19.892Z,1.38
2022-11-21T06:51:49.451Z,1.55
2022-11-21T06:54:17.526Z,1.60
2022-11-21T06:56:45.693Z,1.38
2022-11-21T06:59:13.807Z,1.02
2022-11-21T07:01:41.891Z,1.75
2022-11-21T07:04:09.960Z,1.27
2022-11-21T07:06:38.381Z,1.50
2022-11-21T07:12:16.116Z,1.23
2022-11-21T07:14:43.097Z,1.30
2022-11-21T07:17:12.455Z,1.63
2022-11-21T07:19:41.166Z,1.30
2022-11-21T07:22:09.611Z,1.38
2022-11-21T07:24:38.923Z,1.52
2022-11-21T07:27:06.968Z,1.70
2022-11-21T07:29:34.992Z,2.05
2022-11-21T07:32:03.075Z,1.60
2022-11-21T07:34:31.106Z,1.92
2022-11-21T07:36:59.111Z,1.63
2022-11-21T07:39:27.387Z,1.50
2022-11-21T07:41:57.175Z,1.58
2022-11-21T07:44:25.219Z,1.38
2022-11-21T07:46:57.755Z,1.50
2022-11-21T07:51:54.315Z,1.50
2022-11-21T07:54:22.398Z,1.42
2022-11-21T07:56:50.349Z,1.55
2022-11-21T07:59:19.970Z,1.50
2022-11-21T08:01:48.451Z,1.48
2022-11-21T08:04:16.681Z,1.20
2022-11-21T08:06:44.772Z,1.00
2022-11-21T08:09:12.802Z,1.63
2022-11-21T08:11:42.718Z,1.20
2022-11-21T08:14:10.792Z,1.20
2022-11-21T08:16:40.219Z,0.80
2022-11-21T08:19:08.492Z,1.60
2022-11-21T08:21:38.774Z,1.10
2022-11-21T08:24:10.917Z,1.15
2022-11-21T08:26:39.172Z,1.65
2022-11-21T08:29:07.309Z,1.08
2022-11-21T08:31:35.422Z,1.33
2022-11-21T08:34:06.417Z,2.15
2022-11-21T08:36:35.962Z,1.92
2022-11-21T08:39:03.941Z,1.60
2022-11-21T08:41:49.625Z,1.40
2022-11-21T08:44:17.601Z,1.70
2022-11-21T08:46:45.629Z,1.30
2022-11-21T08:49:15.402Z,1.13
2022-11-21T08:51:43.354Z,1.60
2022-11-21T08:54:11.369Z,1.00
2022-11-21T08:56:39.462Z,1.30
2022-11-21T08:59:14.331Z,1.05
2022-11-21T09:01:49.598Z,1.08
2022-11-21T09:04:25.442Z,1.10
2022-11-21T09:06:53.611Z,1.10
2022-11-21T09:09:25.735Z,1.50
2022-11-21T09:14:39.582Z,1.10
2022-11-21T09:17:25.038Z,1.27
2022-11-21T09:19:54.536Z,1.73
2022-11-21T09:22:22.609Z,1.20
2022-11-21T09:24:50.616Z,1.05
2022-11-21T09:27:18.658Z,1.00
2022-11-21T09:29:51.163Z,1.17
2022-11-21T09:32:22.214Z,0.90
2022-11-21T09:34:50.566Z,1.00
2022-11-21T09:37:22.534Z,1.13
2022-11-21T09:39:50.791Z,1.38
2022-11-21T09:42:42.208Z,1.23
2022-11-21T09:45:14.568Z,1.30
2022-11-21T09:47:45.473Z,1.02
2022-11-21T09:50:30.320Z,1.10
2022-11-21T09:53:03.741Z,1.08
2022-11-21T09:55:42.588Z,1.42
2022-11-21T09:58:20.425Z,1.38
2022-11-21T10:00:51.440Z,1.23
2022-11-21T10:03:22.745Z,0.98
2022-11-21T10:05:55.393Z,1.00
2022-11-21T10:08:35.892Z,1.00
2022-11-21T10:11:19.668Z,1.38
2022-11-21T10:14:06.753Z,1.73
2022-11-21T10:16:42.946Z,1.25
2022-11-21T10:19:22.175Z,0.93
2022-11-21T10:22:09.416Z,0.82
2022-11-21T10:24:52.985Z,1.65
2022-11-21T10:27:30.372Z,1.05
2022-11-21T10:30:05.547Z,1.08
2022-11-21T10:32:38.508Z,1.08
2022-11-21T10:35:16.060Z,1.23
2022-11-21T10:37:49.463Z,1.20
2022-11-21T10:40:31.806Z,1.40
2022-11-21T10:43:24.783Z,1.30
2022-11-21T10:45:52.524Z,1.40
2022-11-21T10:48:22.504Z,1.17
2022-11-21T10:51:08.981Z,1.33
2022-11-21T10:53:54.223Z,1.10
2022-11-21T10:56:26.411Z,1.13
2022-11-21T10:58:56.613Z,1.05
2022-11-21T11:01:29.700Z,1.02
2022-11-21T11:04:41.476Z,1.08
2022-11-21T11:07:22.793Z,0.93
2022-11-21T11:09:52.493Z,1.13
2022-11-21T11:12:45.477Z,1.00
2022-11-21T11:17:52.978Z,0.95
2022-11-21T11:20:47.476Z,0.80
2022-11-21T11:23:26.269Z,0.77
2022-11-21T11:26:03.817Z,1.10
2022-11-21T11:28:37.991Z,1.08
2022-11-21T11:31:06.461Z,0.77
2022-11-21T11:33:39.159Z,0.85
2022-11-21T11:36:14.915Z,0.95
2022-11-21T11:38:53.597Z,0.90
2022-11-21T11:42:01.212Z,0.73
2022-11-21T11:44:53.617Z,1.38
2022-11-21T11:47:34.103Z,1.05
2022-11-21T11:50:12.575Z,1.27
2022-11-21T11:52:52.018Z,1.15
2022-11-21T11:55:25.044Z,1.33
2022-11-21T11:57:56.005Z,1.00
2022-11-21T12:00:33.509Z,0.90
2022-11-21T12:03:07.295Z,1.25
2022-11-21T12:05:37.431Z,1.52
2022-11-21T12:11:25.898Z,1.48
2022-11-21T12:13:57.588Z,1.35
2022-11-21T12:16:30.937Z,1.00
2022-11-21T12:19:03.942Z,1.77
2022-11-21T12:21:33.137Z,1.27
2022-11-21T12:24:04.446Z,1.00
2022-11-21T12:26:49.074Z,1.50
2022-11-21T12:29:29.569Z,1.27
2022-11-21T12:32:12.814Z,1.33
2022-11-21T12:34:57.980Z,1.63
2022-11-21T12:37:37.627Z,1.13
2022-11-21T12:40:30.515Z,1.38
2022-11-21T12:45:32.755Z,0.80
2022-11-21T12:48:39.244Z,1.30
2022-11-21T12:51:36.895Z,0.70
2022-11-21T12:54:33.811Z,0.63
2022-11-21T12:57:10.272Z,0.65
2022-11-21T12:59:51.751Z,0.80
2022-11-21T13:02:29.757Z,1.00
2022-11-21T13:05:01.324Z,0.70
2022-11-21T13:07:31.940Z,0.77
2022-11-21T13:10:01.811Z,1.00
2022-11-21T13:12:40.087Z,0.98
2022-11-21T13:15:20.584Z,1.48
2022-11-21T13:17:55.934Z,1.10
2022-11-21T13:20:32.583Z,0.98
2022-11-21T13:23:06.206Z,1.08
2022-11-21T13:25:39.643Z,1.48
2022-11-21T13:28:33.820Z,1.13
2022-11-21T13:31:04.066Z,1.10
2022-11-21T13:33:53.094Z,1.20
2022-11-21T13:36:42.861Z,0.90
2022-11-21T13:39:38.225Z,1.23
2022-11-21T13:42:31.655Z,1.50
2022-11-21T13:44:59.930Z,1.00
2022-11-21T13:47:59.611Z,0.98
2022-11-21T13:50:53.515Z,1.00
2022-11-21T13:54:06.767Z,1.40
2022-11-21T13:59:38.275Z,1.20
2022-11-21T14:02:38.088Z,1.08
2022-11-21T14:05:33.240Z,1.08
2022-11-21T14:08:19.423Z,1.25
2022-11-21T14:10:51.179Z,1.48
2022-11-21T14:13:24.601Z,1.45
2022-11-21T14:16:11.348Z,1.85
2022-11-21T14:18:43.250Z,1.50
2022-11-21T14:21:21.106Z,2.10
2022-11-21T14:23:49.226Z,1.80
2022-11-21T14:26:21.520Z,1.73
2022-11-21T14:28:49.640Z,2.10
2022-11-21T14:31:17.808Z,1.58
2022-11-21T14:33:47.490Z,1.50
2022-11-21T14:36:17.890Z,1.00
2022-11-21T14:39:02.186Z,1.20
2022-11-21T14:41:39.653Z,1.60
2022-11-21T14:44:19.580Z,1.93
2022-11-21T14:46:48.401Z,2.03
2022-11-21T14:49:25.127Z,2.10
2022-11-21T14:51:59.801Z,2.38
2022-11-21T14:54:31.781Z,2.95
2022-11-21T14:57:03.704Z,2.10
2022-11-21T14:59:34.539Z,2.47
2022-11-21T15:02:08.505Z,2.10
2022-11-21T15:04:37.787Z,2.00
2022-11-21T15:07:06.379Z,1.63
2022-11-21T15:12:30.475Z,1.85
2022-11-21T15:15:02.025Z,1.70
2022-11-21T15:17:30.448Z,1.70
2022-11-21T15:20:19.281Z,2.13
2022-11-21T15:22:49.308Z,2.60
2022-11-21T15:25:20.762Z,2.17
2022-11-21T15:27:51.247Z,1.92
2022-11-21T15:30:27.764Z,1.95
2022-11-21T15:33:03.523Z,2.22
2022-11-21T15:35:43.247Z,1.63
2022-11-21T15:38:33.075Z,2.13
2022-11-21T15:41:25.017Z,1.75
2022-11-21T15:43:56.320Z,1.48
2022-11-21T15:46:26.029Z,2.13
2022-11-21T15:48:55.591Z,1.50
2022-11-21T15:51:51.405Z,1.77
2022-11-21T15:54:15.555Z,2.38
2022-11-21T15:56:43.538Z,2.17
2022-11-21T15:59:12.948Z,1.75
2022-11-21T16:01:41.258Z,1.83
2022-11-21T16:04:11.482Z,2.50
2022-11-21T16:06:39.571Z,1.70
2022-11-21T16:09:07.661Z,2.30
2022-11-21T16:11:39.158Z,1.80
2022-11-21T16:14:08.771Z,1.55
2022-11-21T16:16:43.148Z,2.65
2022-11-21T16:19:15.253Z,1.98
2022-11-21T16:21:43.614Z,2.28
2022-11-21T16:24:11.554Z,2.65
2022-11-21T16:26:39.485Z,3.28
2022-11-21T16:29:07.434Z,2.47
2022-11-21T16:31:36.981Z,1.95
2022-11-21T16:34:04.988Z,2.22
2022-11-21T16:36:36.233Z,2.97
2022-11-21T16:39:11.156Z,2.63
2022-11-21T16:41:41.642Z,2.40
2022-11-21T16:44:14.606Z,2.25
2022-11-21T16:46:45.290Z,2.13
2022-11-21T16:49:14.692Z,2.03
2022-11-21T16:51:44.324Z,2.03
2022-11-21T16:54:12.803Z,2.00
2022-11-21T16:56:40.930Z,2.22
2022-11-21T16:59:09.457Z,2.53
2022-11-21T17:01:38.214Z,2.63
2022-11-21T17:04:14.159Z,2.70
2022-11-21T17:06:45.390Z,2.65
2022-11-21T17:09:13.462Z,2.30
2022-11-21T17:11:41.520Z,2.40
2022-11-21T17:14:12.003Z,2.60
2022-11-21T17:16:41.613Z,2.17
2022-11-21T17:19:13.495Z,2.47
2022-11-21T17:21:43.266Z,2.67
2022-11-21T17:24:13.433Z,2.05
2022-11-21T17:26:41.785Z,2.15
2022-11-21T17:29:10.856Z,2.35
2022-11-21T17:31:41.673Z,2.72
2022-11-21T17:34:09.894Z,2.17
2022-11-21T17:36:39.357Z,2.55
2022-11-21T17:39:07.465Z,1.80
2022-11-21T17:41:35.439Z,1.75
2022-11-21T17:44:12.794Z,2.90
2022-11-21T17:46:40.792Z,2.60
2022-11-21T17:49:10.090Z,1.83
2022-11-21T17:51:40.464Z,1.73
2022-11-21T17:54:09.726Z,1.98
2022-11-21T17:56:45.917Z,2.58
2022-11-21T17:59:15.639Z,2.38
2022-11-21T18:01:43.827Z,1.92
2022-11-21T18:04:27.292Z,2.38
2022-11-21T18:06:56.724Z,2.55
2022-11-21T18:09:24.666Z,1.83
2022-11-21T18:11:52.729Z,1.65
2022-11-21T18:14:22.978Z,2.00
2022-11-21T18:16:53.343Z,1.80
2022-11-21T18:19:22.146Z,1.58
2022-11-21T18:21:50.262Z,1.88
2022-11-21T18:24:20.033Z,1.80
2022-11-21T18:26:48.314Z,1.92
2022-11-21T18:32:04.878Z,2.28
2022-11-21T18:34:32.856Z,1.98
2022-11-21T18:37:00.933Z,2.63
2022-11-21T18:39:30.806Z,1.98
2022-11-21T18:42:00.056Z,1.55
2022-11-21T18:44:27.986Z,1.58
2022-11-21T18:46:56.924Z,2.83
2022-11-21T18:49:25.026Z,1.98
2022-11-21T18:51:52.903Z,1.80
2022-11-21T18:54:20.901Z,1.75
2022-11-21T18:56:53.137Z,2.10
2022-11-21T18:59:21.110Z,2.05
2022-11-21T19:01:50.360Z,1.83
2022-11-21T19:04:18.374Z,1.60
2022-11-21T19:06:46.318Z,2.08
2022-11-21T19:09:15.002Z,1.90
2022-11-21T19:11:42.965Z,1.48
2022-11-21T19:14:12.378Z,1.67
2022-11-21T19:16:41.858Z,2.00
2022-11-21T19:19:33.551Z,2.30
2022-11-21T19:21:59.319Z,2.90
2022-11-21T19:24:27.416Z,2.55
2022-11-21T19:26:55.488Z,2.72
2022-11-21T19:29:24.922Z,2.03
2022-11-21T19:31:53.062Z,2.28
2022-11-21T19:34:21.152Z,1.67
2022-11-21T19:36:49.438Z,2.20
2022-11-21T19:39:18.224Z,2.17
2022-11-21T19:41:48.650Z,2.30
2022-11-21T19:44:16.856Z,2.05
2022-11-21T19:46:46.419Z,2.17
2022-11-21T19:49:16.532Z,1.75
2022-11-21T19:51:44.894Z,1.98
2022-11-21T19:54:16.212Z,2.13
2022-11-21T19:56:44.289Z,1.60
2022-11-21T19:59:14.528Z,1.85
2022-11-21T20:01:44.830Z,1.75
2022-11-21T20:04:17.698Z,1.55
2022-11-21T20:06:51.365Z,1.98
2022-11-21T20:09:21.708Z,2.13
2022-11-21T20:11:52.436Z,2.10
2022-11-21T20:14:22.719Z,1.10
2022-11-21T20:16:54.195Z,1.83
2022-11-21T20:19:26.771Z,1.77
2022-11-21T20:22:02.631Z,2.03
2022-11-21T20:24:50.290Z,2.15
2022-11-21T20:27:26.005Z,2.25
2022-11-21T20:29:56.285Z,2.13
2022-11-21T20:32:35.253Z,1.67
2022-11-21T20:35:08.466Z,2.10
2022-11-21T20:37:47.049Z,2.63
2022-11-21T20:40:17.836Z,2.20
2022-11-21T20:42:49.978Z,2.33
2022-11-21T20:46:08.064Z,2.42
2022-11-21T20:48:20.035Z,1.90
2022-11-21T20:58:08.057Z,2.03
2022-11-21T21:00:36.192Z,1.95
2022-11-21T21:03:04.505Z,2.20
2022-11-21T21:05:32.640Z,2.10
2022-11-21T21:08:02.234Z,1.95
2022-11-21T21:10:46.058Z,2.03
2022-11-21T21:13:18.588Z,2.30
2022-11-21T21:15:46.728Z,1.98
2022-11-21T21:18:14.939Z,1.90
2022-11-21T21:21:01.906Z,2.17
2022-11-21T21:23:33.792Z,2.05
2022-11-21T21:26:09.661Z,2.42
2022-11-21T21:28:37.820Z,2.00
2022-11-21T21:31:11.179Z,2.00
2022-11-21T21:33:40.004Z,1.98
2022-11-21T21:36:10.156Z,2.30
2022-11-21T21:38:39.813Z,2.38
2022-11-21T21:41:09.349Z,2.90
2022-11-21T21:43:37.913Z,2.38
2022-11-21T21:46:07.000Z,2.88
2022-11-21T21:48:35.488Z,2.10
2022-11-21T21:51:05.409Z,2.65
2022-11-21T21:53:36.099Z,2.65
2022-11-21T21:56:06.504Z,3.15
2022-11-21T21:58:35.747Z,2.95
2022-11-21T22:01:04.552Z,3.08
2022-11-21T22:03:32.947Z,2.70
2022-11-21T22:06:04.953Z,2.67
2022-11-21T22:08:34.875Z,2.70
2022-11-21T22:11:06.619Z,3.00
2022-11-21T22:13:35.288Z,2.60
2022-11-21T22:16:04.937Z,2.78
2022-11-21T22:18:33.499Z,3.00
2022-11-21T22:21:02.238Z,2.90
2022-11-21T22:23:30.667Z,2.88
2022-11-21T22:25:59.638Z,3.90
2022-11-21T22:28:29.842Z,3.63
2022-11-21T22:30:58.965Z,3.72
2022-11-21T22:33:29.549Z,3.45
2022-11-21T22:36:01.227Z,2.90
2022-11-21T22:38:29.882Z,2.92
2022-11-21T22:41:02.637Z,2.53
2022-11-21T22:43:32.470Z,3.28
2022-11-21T22:46:04.455Z,3.03
2022-11-21T22:48:33.300Z,3.40
2022-11-21T22:51:01.301Z,3.38
2022-11-21T22:53:34.461Z,2.95
2022-11-21T22:56:07.883Z,2.70
2022-11-21T22:58:42.062Z,3.00
2022-11-21T23:01:12.145Z,2.90
2022-11-21T23:03:40.982Z,3.47
2022-11-21T23:06:11.234Z,3.20
2022-11-21T23:08:40.213Z,3.15
2022-11-21T23:11:10.938Z,3.63
2022-11-21T23:13:43.591Z,3.53
2022-11-21T23:16:12.467Z,3.17
2022-11-21T23:18:42.631Z,3.10
2022-11-21T23:21:11.581Z,3.08
2022-11-21T23:23:39.875Z,3.22
2022-11-21T23:26:08.581Z,3.25
2022-11-21T23:28:36.832Z,3.00
2022-11-21T23:31:06.464Z,2.80
2022-11-21T23:33:34.615Z,2.60
2022-11-21T23:36:02.847Z,2.80
2022-11-21T23:38:31.168Z,3.45
2022-11-21T23:40:59.261Z,2.70
2022-11-21T23:43:27.372Z,3.10
2022-11-21T23:45:56.337Z,3.33
2022-11-21T23:48:27.473Z,2.75
2022-11-21T23:50:56.060Z,3.53
2022-11-21T23:53:24.364Z,3.30
2022-11-21T23:55:52.462Z,2.88
2022-11-21T23:58:20.410Z,4.15
